Pagrindinis puslapis
METAR-TAF:

METAR-TAF

Oro uostai :

Bandar Kangan, Iranas

platuma: 27-49-14N, ilguma: 52-21-08E, Aukštis: 662 m

Dabartinis oras

Ataskaita buvo paskelbta 6 valandos ir 51 minutes, ne 15:00 UTC
Vėjas 4 kt iš Pietryčių
Temperatūra 13°C
Drėgmė 72%
Slėgis 1015 hPa
Matomumas 10 km arba daugiau
nėra debesų žemiau 1500 m ir nėra kamuolinių lietaus debesų

METAR: OIBJ 121500Z 13004KT CAVOK 13/08 Q1015

Laikas: 01:21 (21:51 UTC)


TAF: trūkstamas

Orai ataskaitas ir orų prognozės (METAR, TAF).

turimą stotys yra geltonos ir raudonos taškus žemėlapyje.

Perkelti pele per norėdami pamatyti stoties vardą.

Tada spustelėkite, norėdami matyti oro stebėjimo ir prognozės.

Norėdami pakeisti žemėlapį: spustelėkite ant žalios mygtukų su juodo kryžiaus žemyn,; žalią mygtuką su brūkšneliu, jei norite nutolinti; arba žalių rodyklių gretimoms žemėlapius.


METAR-TAF: